APK7614 TBPB-TAPA
Flight info
| Callsign | APK7614 |
|---|---|
| Flight time | 0h 54m |
| Altitude | 38000 |
| Route | BGI UA632 ANU |
| Aircraft | B772/H-SDE2E3FGHIJ5LORVWXY/LB1D1 |
Departure
| Time | 2026-04-15 21:52 |
|---|---|
| Airport | Grantley Adams International Airport (TBPB) |
Arrival
| Time | 2026-04-15 22:46 |
|---|---|
| Airport | V. C. Bird International Airport (TAPA) |
| Time | Latitude | Longitude | Altitude | Speed | Heading |
|---|---|---|---|---|---|
| 2026-04-15 20:09 | 13.07926 | -59.48560 | 180 ft | 0 kts | 346° |
| 2026-04-15 21:41 | 13.07916 | -59.48557 | 180 ft | 4 kts | 346° |
| 2026-04-15 21:41 | 13.07889 | -59.48550 | 180 ft | 4 kts | 346° |
| 2026-04-15 21:41 | 13.07863 | -59.48544 | 180 ft | 3 kts | 346° |
| 2026-04-15 21:41 | 13.07842 | -59.48536 | 180 ft | 4 kts | 313° |
| 2026-04-15 21:42 | 13.07836 | -59.48515 | 180 ft | 4 kts | 253° |
| 2026-04-15 21:42 | 13.07841 | -59.48499 | 180 ft | 0 kts | 256° |
| 2026-04-15 21:45 | 13.07840 | -59.48504 | 180 ft | 5 kts | 257° |
| 2026-04-15 21:45 | 13.07827 | -59.48558 | 180 ft | 8 kts | 256° |
| 2026-04-15 21:45 | 13.07811 | -59.48621 | 180 ft | 12 kts | 256° |
| 2026-04-15 21:45 | 13.07790 | -59.48705 | 180 ft | 12 kts | 251° |
| 2026-04-15 21:46 | 13.07750 | -59.48782 | 180 ft | 12 kts | 241° |
| 2026-04-15 21:46 | 13.07722 | -59.48864 | 180 ft | 12 kts | 255° |
| 2026-04-15 21:46 | 13.07701 | -59.48947 | 180 ft | 12 kts | 256° |
| 2026-04-15 21:46 | 13.07680 | -59.49032 | 180 ft | 12 kts | 256° |
| 2026-04-15 21:47 | 13.07652 | -59.49149 | 180 ft | 20 kts | 256° |
| 2026-04-15 21:47 | 13.07618 | -59.49284 | 180 ft | 20 kts | 256° |
| 2026-04-15 21:47 | 13.07585 | -59.49420 | 180 ft | 20 kts | 256° |
| 2026-04-15 21:47 | 13.07552 | -59.49555 | 180 ft | 20 kts | 256° |
| 2026-04-15 21:48 | 13.07519 | -59.49691 | 180 ft | 20 kts | 256° |
| 2026-04-15 21:48 | 13.07486 | -59.49826 | 180 ft | 20 kts | 256° |
| 2026-04-15 21:48 | 13.07452 | -59.49962 | 180 ft | 20 kts | 256° |
| 2026-04-15 21:48 | 13.07419 | -59.50097 | 180 ft | 20 kts | 256° |
| 2026-04-15 21:49 | 13.07386 | -59.50233 | 180 ft | 20 kts | 256° |
| 2026-04-15 21:49 | 13.07353 | -59.50368 | 180 ft | 20 kts | 256° |
| 2026-04-15 21:49 | 13.07320 | -59.50503 | 180 ft | 20 kts | 256° |
| 2026-04-15 21:49 | 13.07288 | -59.50636 | 180 ft | 12 kts | 256° |
| 2026-04-15 21:50 | 13.07268 | -59.50696 | 179 ft | 9 kts | 240° |
| 2026-04-15 21:50 | 13.07207 | -59.50725 | 179 ft | 11 kts | 176° |
| 2026-04-15 21:50 | 13.07140 | -59.50711 | 179 ft | 7 kts | 167° |
| 2026-04-15 21:50 | 13.07109 | -59.50681 | 180 ft | 7 kts | 98° |
| 2026-04-15 21:51 | 13.07114 | -59.50652 | 180 ft | 0 kts | 76° |
| 2026-04-15 21:52 | 13.07139 | -59.50546 | 180 ft | 57 kts | 76° |
| 2026-04-15 21:52 | 13.07331 | -59.49785 | 203 ft | 158 kts | 78° |
| 2026-04-15 21:52 | 13.07642 | -59.48572 | 1025 ft | 181 kts | 79° |
| 2026-04-15 21:52 | 13.07993 | -59.47375 | 2677 ft | 180 kts | 70° |
| 2026-04-15 21:53 | 13.08848 | -59.46314 | 3239 ft | 214 kts | 39° |
| 2026-04-15 21:53 | 13.10398 | -59.45880 | 3525 ft | 252 kts | 360° |
| 2026-04-15 21:53 | 13.12152 | -59.46422 | 3899 ft | 280 kts | 336° |
| 2026-04-15 21:53 | 13.13880 | -59.47410 | 4704 ft | 289 kts | 331° |
| 2026-04-15 21:54 | 13.15610 | -59.48496 | 5645 ft | 291 kts | 330° |
| 2026-04-15 21:54 | 13.17341 | -59.49594 | 6616 ft | 294 kts | 330° |
| 2026-04-15 21:54 | 13.19084 | -59.50686 | 7573 ft | 293 kts | 330° |
| 2026-04-15 21:54 | 13.20856 | -59.51781 | 8341 ft | 302 kts | 330° |
| 2026-04-15 21:55 | 13.22658 | -59.52879 | 9291 ft | 302 kts | 330° |
| 2026-04-15 21:55 | 13.24481 | -59.53978 | 10189 ft | 304 kts | 330° |
| 2026-04-15 21:55 | 13.26363 | -59.55104 | 10621 ft | 326 kts | 329° |
| 2026-04-15 21:55 | 13.28411 | -59.56165 | 11063 ft | 341 kts | 338° |
| 2026-04-15 21:56 | 13.30683 | -59.57015 | 11749 ft | 352 kts | 339° |
| 2026-04-15 21:56 | 13.33002 | -59.57898 | 12539 ft | 358 kts | 337° |
| 2026-04-15 21:56 | 13.35305 | -59.58899 | 13555 ft | 360 kts | 333° |
| 2026-04-15 21:56 | 13.37577 | -59.60009 | 14401 ft | 364 kts | 330° |
| 2026-04-15 21:57 | 13.39828 | -59.61208 | 15368 ft | 363 kts | 328° |
| 2026-04-15 21:57 | 13.42039 | -59.62453 | 16385 ft | 362 kts | 327° |
| 2026-04-15 21:57 | 13.44245 | -59.63739 | 17331 ft | 364 kts | 326° |
| 2026-04-15 21:57 | 13.46445 | -59.65047 | 18242 ft | 367 kts | 325° |
| 2026-04-15 21:58 | 13.48663 | -59.66381 | 19007 ft | 371 kts | 324° |
| 2026-04-15 21:58 | 13.50897 | -59.67732 | 19766 ft | 375 kts | 324° |
| 2026-04-15 21:58 | 13.53163 | -59.69106 | 20541 ft | 379 kts | 324° |
| 2026-04-15 21:58 | 13.55444 | -59.70489 | 21311 ft | 383 kts | 324° |
| 2026-04-15 21:59 | 13.57750 | -59.71888 | 22089 ft | 387 kts | 324° |
| 2026-04-15 21:59 | 13.60083 | -59.73303 | 22880 ft | 391 kts | 325° |
| 2026-04-15 21:59 | 13.62425 | -59.74722 | 23698 ft | 391 kts | 325° |
| 2026-04-15 21:59 | 13.64748 | -59.76130 | 24366 ft | 394 kts | 324° |
| 2026-04-15 22:00 | 13.67149 | -59.77586 | 24967 ft | 399 kts | 324° |
| 2026-04-15 22:00 | 13.69525 | -59.79029 | 25538 ft | 404 kts | 324° |
| 2026-04-15 22:00 | 13.71965 | -59.80510 | 26147 ft | 408 kts | 324° |
| 2026-04-15 22:00 | 13.74423 | -59.82002 | 26785 ft | 412 kts | 324° |
| 2026-04-15 22:01 | 13.76901 | -59.83506 | 27397 ft | 416 kts | 324° |
| 2026-04-15 22:01 | 13.79405 | -59.85027 | 27995 ft | 419 kts | 324° |
| 2026-04-15 22:01 | 13.81931 | -59.86561 | 28564 ft | 424 kts | 323° |
| 2026-04-15 22:01 | 13.84482 | -59.88111 | 29101 ft | 428 kts | 323° |
| 2026-04-15 22:02 | 13.87059 | -59.89678 | 29643 ft | 432 kts | 323° |
| 2026-04-15 22:02 | 13.89663 | -59.91261 | 30104 ft | 437 kts | 323° |
| 2026-04-15 22:02 | 13.92288 | -59.92857 | 30511 ft | 440 kts | 323° |
| 2026-04-15 22:02 | 13.94937 | -59.94467 | 30975 ft | 443 kts | 323° |
| 2026-04-15 22:03 | 13.97606 | -59.96089 | 31413 ft | 445 kts | 323° |
| 2026-04-15 22:03 | 14.00284 | -59.97718 | 31818 ft | 448 kts | 323° |
| 2026-04-15 22:03 | 14.02975 | -59.99356 | 32199 ft | 452 kts | 323° |
| 2026-04-15 22:03 | 14.05692 | -60.01010 | 32563 ft | 455 kts | 323° |
| 2026-04-15 22:04 | 14.08422 | -60.02673 | 32918 ft | 458 kts | 323° |
| 2026-04-15 22:04 | 14.11177 | -60.04351 | 33273 ft | 461 kts | 323° |
| 2026-04-15 22:04 | 14.13941 | -60.06035 | 33621 ft | 463 kts | 323° |
| 2026-04-15 22:04 | 14.16730 | -60.07734 | 33993 ft | 465 kts | 323° |
| 2026-04-15 22:05 | 14.19507 | -60.09425 | 34410 ft | 464 kts | 323° |
| 2026-04-15 22:05 | 14.22278 | -60.11112 | 34871 ft | 462 kts | 322° |
| 2026-04-15 22:05 | 14.25039 | -60.12795 | 35342 ft | 460 kts | 322° |
| 2026-04-15 22:05 | 14.27792 | -60.14473 | 35794 ft | 459 kts | 322° |
| 2026-04-15 22:06 | 14.30532 | -60.16145 | 36271 ft | 457 kts | 322° |
| 2026-04-15 22:06 | 14.33263 | -60.17812 | 36760 ft | 455 kts | 322° |
| 2026-04-15 22:06 | 14.35960 | -60.19460 | 37108 ft | 456 kts | 322° |
| 2026-04-15 22:06 | 14.38687 | -60.21128 | 37495 ft | 456 kts | 322° |
| 2026-04-15 22:07 | 14.41414 | -60.22795 | 37893 ft | 455 kts | 322° |
| 2026-04-15 22:07 | 14.46829 | -60.26101 | 37952 ft | 441 kts | 322° |
| 2026-04-15 22:07 | 14.49435 | -60.27687 | 37940 ft | 427 kts | 322° |
| 2026-04-15 22:08 | 14.51950 | -60.29221 | 37936 ft | 414 kts | 321° |
| 2026-04-15 22:08 | 14.54368 | -60.30699 | 37937 ft | 400 kts | 321° |
| 2026-04-15 22:08 | 14.56725 | -60.32144 | 37944 ft | 392 kts | 321° |
| 2026-04-15 22:09 | 14.61401 | -60.35024 | 37976 ft | 392 kts | 321° |
| 2026-04-15 22:09 | 14.66100 | -60.37903 | 37971 ft | 393 kts | 321° |
| 2026-04-15 22:10 | 14.70897 | -60.40670 | 37966 ft | 395 kts | 322° |
| 2026-04-15 22:10 | 14.74913 | -60.42928 | 37962 ft | 395 kts | 323° |
| 2026-04-15 22:11 | 14.79732 | -60.45648 | 37960 ft | 394 kts | 322° |
| 2026-04-15 22:11 | 14.84530 | -60.48370 | 37927 ft | 390 kts | 322° |
| 2026-04-15 22:11 | 14.86894 | -60.49712 | 37653 ft | 385 kts | 322° |
| 2026-04-15 22:12 | 14.89248 | -60.51053 | 37079 ft | 388 kts | 322° |
| 2026-04-15 22:12 | 14.91623 | -60.52412 | 36451 ft | 392 kts | 322° |
| 2026-04-15 22:12 | 14.94021 | -60.53784 | 35872 ft | 395 kts | 323° |
| 2026-04-15 22:12 | 14.96434 | -60.55164 | 35391 ft | 397 kts | 323° |
| 2026-04-15 22:13 | 14.98820 | -60.56525 | 34933 ft | 397 kts | 323° |
| 2026-04-15 22:13 | 15.01241 | -60.57906 | 34443 ft | 398 kts | 323° |
| 2026-04-15 22:13 | 15.03670 | -60.59294 | 33928 ft | 400 kts | 323° |
| 2026-04-15 22:13 | 15.06121 | -60.60693 | 33367 ft | 402 kts | 323° |
| 2026-04-15 22:14 | 15.08569 | -60.62091 | 32866 ft | 402 kts | 324° |
| 2026-04-15 22:14 | 15.11015 | -60.63488 | 32367 ft | 402 kts | 324° |
| 2026-04-15 22:14 | 15.13470 | -60.64890 | 31847 ft | 403 kts | 324° |
| 2026-04-15 22:14 | 15.15924 | -60.66292 | 31438 ft | 401 kts | 324° |
| 2026-04-15 22:15 | 15.18350 | -60.67677 | 31208 ft | 397 kts | 324° |
| 2026-04-15 22:15 | 15.20776 | -60.69064 | 30988 ft | 400 kts | 324° |
| 2026-04-15 22:15 | 15.23226 | -60.70468 | 30779 ft | 404 kts | 324° |
| 2026-04-15 22:15 | 15.25693 | -60.71883 | 30550 ft | 407 kts | 325° |
| 2026-04-15 22:16 | 15.28117 | -60.73267 | 30228 ft | 390 kts | 325° |
| 2026-04-15 22:16 | 15.30429 | -60.74578 | 29834 ft | 368 kts | 324° |
| 2026-04-15 22:16 | 15.32617 | -60.75820 | 29404 ft | 349 kts | 324° |
| 2026-04-15 22:16 | 15.34707 | -60.77012 | 29028 ft | 340 kts | 324° |
| 2026-04-15 22:17 | 15.36802 | -60.78221 | 28667 ft | 353 kts | 324° |
| 2026-04-15 22:17 | 15.39021 | -60.79512 | 28276 ft | 376 kts | 325° |
| 2026-04-15 22:17 | 15.41308 | -60.80833 | 27926 ft | 369 kts | 325° |
| 2026-04-15 22:17 | 15.43510 | -60.82090 | 27293 ft | 354 kts | 326° |
| 2026-04-15 22:18 | 15.45629 | -60.83296 | 26678 ft | 340 kts | 326° |
| 2026-04-15 22:18 | 15.47659 | -60.84455 | 26083 ft | 328 kts | 326° |
| 2026-04-15 22:18 | 15.49634 | -60.85586 | 25421 ft | 320 kts | 326° |
| 2026-04-15 22:18 | 15.51571 | -60.86699 | 24683 ft | 317 kts | 326° |
| 2026-04-15 22:19 | 15.53495 | -60.87806 | 23905 ft | 316 kts | 326° |
| 2026-04-15 22:19 | 15.55414 | -60.88911 | 23072 ft | 314 kts | 327° |
| 2026-04-15 22:19 | 15.57310 | -60.90001 | 22387 ft | 306 kts | 326° |
| 2026-04-15 22:19 | 15.59137 | -60.91048 | 22103 ft | 298 kts | 326° |
| 2026-04-15 22:20 | 15.60979 | -60.92109 | 21910 ft | 308 kts | 326° |
| 2026-04-15 22:20 | 15.62884 | -60.93210 | 21710 ft | 317 kts | 326° |
| 2026-04-15 22:20 | 15.64793 | -60.94310 | 21457 ft | 317 kts | 326° |
| 2026-04-15 22:20 | 15.66708 | -60.95410 | 21213 ft | 312 kts | 326° |
| 2026-04-15 22:21 | 15.68595 | -60.96492 | 20955 ft | 307 kts | 326° |
| 2026-04-15 22:21 | 15.70451 | -60.97558 | 20695 ft | 303 kts | 326° |
| 2026-04-15 22:21 | 15.72287 | -60.98613 | 20464 ft | 301 kts | 326° |
| 2026-04-15 22:21 | 15.74115 | -60.99665 | 20237 ft | 299 kts | 326° |
| 2026-04-15 22:22 | 15.75934 | -61.00713 | 19994 ft | 298 kts | 326° |
| 2026-04-15 22:22 | 15.77746 | -61.01756 | 19757 ft | 297 kts | 326° |
| 2026-04-15 22:22 | 15.79555 | -61.02798 | 19533 ft | 297 kts | 326° |
| 2026-04-15 22:22 | 15.81362 | -61.03839 | 19304 ft | 297 kts | 326° |
| 2026-04-15 22:23 | 15.83166 | -61.04879 | 19083 ft | 297 kts | 326° |
| 2026-04-15 22:23 | 15.84972 | -61.05921 | 18860 ft | 297 kts | 326° |
| 2026-04-15 22:23 | 15.86785 | -61.06966 | 18644 ft | 297 kts | 326° |
| 2026-04-15 22:23 | 15.88575 | -61.07998 | 18418 ft | 298 kts | 326° |
| 2026-04-15 22:24 | 15.90388 | -61.09043 | 18182 ft | 298 kts | 326° |
| 2026-04-15 22:24 | 15.92208 | -61.10093 | 17957 ft | 298 kts | 326° |
| 2026-04-15 22:24 | 15.94016 | -61.11135 | 17687 ft | 297 kts | 326° |
| 2026-04-15 22:24 | 15.95825 | -61.12179 | 17353 ft | 300 kts | 326° |
| 2026-04-15 22:25 | 15.97687 | -61.13257 | 17015 ft | 313 kts | 327° |
| 2026-04-15 22:25 | 15.99659 | -61.14402 | 16654 ft | 335 kts | 327° |
| 2026-04-15 22:25 | 16.01724 | -61.15597 | 16249 ft | 342 kts | 327° |
| 2026-04-15 22:25 | 16.03806 | -61.16797 | 15854 ft | 341 kts | 328° |
| 2026-04-15 22:26 | 16.05851 | -61.17975 | 15442 ft | 340 kts | 328° |
| 2026-04-15 22:26 | 16.07910 | -61.19161 | 15032 ft | 331 kts | 328° |
| 2026-04-15 22:26 | 16.09856 | -61.20278 | 14637 ft | 309 kts | 328° |
| 2026-04-15 22:26 | 16.11678 | -61.21327 | 14278 ft | 290 kts | 328° |
| 2026-04-15 22:27 | 16.13402 | -61.22321 | 13942 ft | 278 kts | 328° |
| 2026-04-15 22:27 | 16.15100 | -61.23304 | 13651 ft | 287 kts | 328° |
| 2026-04-15 22:27 | 16.16924 | -61.24366 | 13281 ft | 312 kts | 328° |
| 2026-04-15 22:27 | 16.18847 | -61.25482 | 12878 ft | 320 kts | 328° |
| 2026-04-15 22:28 | 16.20753 | -61.26584 | 12452 ft | 303 kts | 329° |
| 2026-04-15 22:28 | 16.22538 | -61.27613 | 12087 ft | 284 kts | 329° |
| 2026-04-15 22:28 | 16.24251 | -61.28603 | 11791 ft | 284 kts | 329° |
| 2026-04-15 22:28 | 16.26015 | -61.29626 | 11453 ft | 300 kts | 329° |
| 2026-04-15 22:29 | 16.27890 | -61.30714 | 11090 ft | 313 kts | 329° |
| 2026-04-15 22:29 | 16.29797 | -61.31821 | 10705 ft | 314 kts | 329° |
| 2026-04-15 22:29 | 16.31712 | -61.32930 | 10315 ft | 315 kts | 330° |
| 2026-04-15 22:29 | 16.33604 | -61.34025 | 10096 ft | 300 kts | 330° |
| 2026-04-15 22:30 | 16.35358 | -61.35040 | 9849 ft | 282 kts | 330° |
| 2026-04-15 22:30 | 16.37059 | -61.36025 | 9518 ft | 286 kts | 330° |
| 2026-04-15 22:30 | 16.38808 | -61.37040 | 9184 ft | 289 kts | 330° |
| 2026-04-15 22:30 | 16.40571 | -61.38062 | 8849 ft | 290 kts | 331° |
| 2026-04-15 22:31 | 16.42333 | -61.39084 | 8505 ft | 290 kts | 331° |
| 2026-04-15 22:31 | 16.44096 | -61.40107 | 8168 ft | 290 kts | 332° |
| 2026-04-15 22:31 | 16.45856 | -61.41128 | 7836 ft | 289 kts | 332° |
| 2026-04-15 22:31 | 16.47615 | -61.42149 | 7503 ft | 289 kts | 332° |
| 2026-04-15 22:32 | 16.49373 | -61.43170 | 7173 ft | 289 kts | 332° |
| 2026-04-15 22:32 | 16.51130 | -61.44190 | 6839 ft | 290 kts | 332° |
| 2026-04-15 22:32 | 16.52895 | -61.45215 | 6505 ft | 290 kts | 332° |
| 2026-04-15 22:32 | 16.54641 | -61.46229 | 6144 ft | 283 kts | 332° |
| 2026-04-15 22:33 | 16.56357 | -61.47226 | 5818 ft | 282 kts | 332° |
| 2026-04-15 22:33 | 16.58066 | -61.48219 | 5487 ft | 281 kts | 333° |
| 2026-04-15 22:33 | 16.59781 | -61.49217 | 5167 ft | 281 kts | 333° |
| 2026-04-15 22:33 | 16.61486 | -61.50207 | 4844 ft | 281 kts | 333° |
| 2026-04-15 22:34 | 16.63195 | -61.51201 | 4500 ft | 280 kts | 332° |
| 2026-04-15 22:34 | 16.64898 | -61.52192 | 4187 ft | 279 kts | 333° |
| 2026-04-15 22:34 | 16.66574 | -61.53168 | 3863 ft | 279 kts | 333° |
| 2026-04-15 22:34 | 16.68265 | -61.54150 | 3542 ft | 279 kts | 333° |
| 2026-04-15 22:35 | 16.69958 | -61.55136 | 3231 ft | 279 kts | 333° |
| 2026-04-15 22:35 | 16.71653 | -61.56123 | 2913 ft | 279 kts | 333° |
| 2026-04-15 22:35 | 16.73341 | -61.57118 | 2577 ft | 273 kts | 329° |
| 2026-04-15 22:35 | 16.74647 | -61.58488 | 2502 ft | 269 kts | 303° |
| 2026-04-15 22:36 | 16.75662 | -61.60179 | 2497 ft | 277 kts | 303° |
| 2026-04-15 22:36 | 16.76697 | -61.61838 | 2489 ft | 275 kts | 304° |
| 2026-04-15 22:36 | 16.77753 | -61.63516 | 2466 ft | 272 kts | 304° |
| 2026-04-15 22:36 | 16.78783 | -61.65151 | 2492 ft | 269 kts | 304° |
| 2026-04-15 22:37 | 16.79803 | -61.66770 | 2501 ft | 270 kts | 304° |
| 2026-04-15 22:37 | 16.80836 | -61.68416 | 2493 ft | 271 kts | 304° |
| 2026-04-15 22:37 | 16.81868 | -61.70060 | 2489 ft | 271 kts | 304° |
| 2026-04-15 22:37 | 16.82902 | -61.71706 | 2473 ft | 271 kts | 304° |
| 2026-04-15 22:38 | 16.83936 | -61.73353 | 2485 ft | 270 kts | 304° |
| 2026-04-15 22:38 | 16.84964 | -61.74990 | 2485 ft | 270 kts | 304° |
| 2026-04-15 22:38 | 16.85992 | -61.76627 | 2483 ft | 269 kts | 304° |
| 2026-04-15 22:38 | 16.87015 | -61.78256 | 2483 ft | 268 kts | 304° |
| 2026-04-15 22:39 | 16.88037 | -61.79885 | 2489 ft | 267 kts | 303° |
| 2026-04-15 22:39 | 16.89058 | -61.81512 | 2490 ft | 267 kts | 303° |
| 2026-04-15 22:39 | 16.90078 | -61.83137 | 2495 ft | 269 kts | 303° |
| 2026-04-15 22:39 | 16.91104 | -61.84773 | 2498 ft | 270 kts | 303° |
| 2026-04-15 22:40 | 16.92137 | -61.86418 | 2502 ft | 272 kts | 303° |
| 2026-04-15 22:40 | 16.93175 | -61.88074 | 2499 ft | 273 kts | 303° |
| 2026-04-15 22:40 | 16.94217 | -61.89737 | 2494 ft | 274 kts | 303° |
| 2026-04-15 22:41 | 16.96951 | -61.92254 | 2509 ft | 268 kts | 333° |
| 2026-04-15 22:41 | 16.98580 | -61.93248 | 2508 ft | 273 kts | 331° |
| 2026-04-15 22:41 | 17.00180 | -61.94272 | 2501 ft | 264 kts | 331° |
| 2026-04-15 22:41 | 17.01785 | -61.94966 | 2469 ft | 239 kts | 358° |
| 2026-04-15 22:42 | 17.03304 | -61.94757 | 2475 ft | 213 kts | 27° |
| 2026-04-15 22:42 | 17.04535 | -61.94048 | 2471 ft | 194 kts | 39° |
| 2026-04-15 22:42 | 17.05454 | -61.93141 | 2473 ft | 175 kts | 60° |
| 2026-04-15 22:42 | 17.06072 | -61.92070 | 2504 ft | 173 kts | 61° |
| 2026-04-15 22:43 | 17.06729 | -61.91021 | 2329 ft | 170 kts | 57° |
| 2026-04-15 22:43 | 17.07391 | -61.90022 | 2164 ft | 163 kts | 59° |
| 2026-04-15 22:43 | 17.08005 | -61.89023 | 2150 ft | 162 kts | 59° |
| 2026-04-15 22:43 | 17.08547 | -61.88082 | 1947 ft | 143 kts | 63° |
| 2026-04-15 22:44 | 17.09023 | -61.87191 | 1594 ft | 134 kts | 67° |
| 2026-04-15 22:44 | 17.09451 | -61.86364 | 1411 ft | 128 kts | 63° |
| 2026-04-15 22:44 | 17.09928 | -61.85605 | 1301 ft | 122 kts | 63° |
| 2026-04-15 22:44 | 17.10382 | -61.84860 | 1089 ft | 124 kts | 65° |
| 2026-04-15 22:45 | 17.10824 | -61.84080 | 872 ft | 123 kts | 64° |
| 2026-04-15 22:45 | 17.11252 | -61.83339 | 719 ft | 116 kts | 60° |
| 2026-04-15 22:45 | 17.11687 | -61.82614 | 539 ft | 122 kts | 59° |
| 2026-04-15 22:45 | 17.12150 | -61.81856 | 435 ft | 128 kts | 62° |
| 2026-04-15 22:46 | 17.12604 | -61.81087 | 248 ft | 121 kts | 61° |
| 2026-04-15 22:46 | 17.13050 | -61.80326 | 105 ft | 124 kts | 61° |
| 2026-04-15 22:46 | 17.13469 | -61.79610 | 65 ft | 102 kts | 58° |
| 2026-04-15 22:46 | 17.13745 | -61.79144 | 65 ft | 49 kts | 58° |
| 2026-04-15 22:47 | 17.13787 | -61.79093 | 62 ft | 1 kts | 22° |
| 2026-04-15 22:47 | 17.13822 | -61.79105 | 64 ft | 7 kts | 332° |
| 2026-04-15 22:47 | 17.13870 | -61.79124 | 64 ft | 11 kts | 350° |
| 2026-04-15 22:47 | 17.13959 | -61.79096 | 61 ft | 13 kts | 43° |
| 2026-04-15 22:48 | 17.14005 | -61.79031 | 61 ft | 10 kts | 58° |
| 2026-04-15 22:48 | 17.14043 | -61.78967 | 60 ft | 10 kts | 58° |
| 2026-04-15 22:48 | 17.14080 | -61.78904 | 61 ft | 10 kts | 58° |
| 2026-04-15 22:48 | 17.14126 | -61.78867 | 62 ft | 6 kts | 1° |
| 2026-04-15 22:49 | 17.14159 | -61.78884 | 60 ft | 3 kts | 311° |
| 2026-04-15 22:49 | 17.14167 | -61.78909 | 62 ft | 4 kts | 283° |
| 2026-04-15 22:49 | 17.14170 | -61.78922 | 59 ft | 0 kts | 283° |